Time;durP1;ratioP1;P1;durP2;ratioP2;P2;SDS_P1;SDS_P2;PMS_P1;PMS_P2;Temp;Humidity;BMP_temperature;BMP_pressure;BME280_temperature;BME280_humidity;BME280_pressure;Samples;Min_cycle;Max_cycle;Signal;HPM_P1;HPM_P2
2023/09/23 00:00:49;;;;;;;;;;;;;;;;;;6249289;28;19921;-88
2023/09/23 00:03:49;;;;;;;;;;;;;;;;;;6259647;28;19913;-89
2023/09/23 00:06:50;;;;;;;;;;;;;;;;;;6258743;28;19995;-89
2023/09/23 00:09:51;;;;;;;;;;;;;;;;;;6291718;28;19982;-91
2023/09/23 00:12:51;;;;;;;;;;;;;;;;;;6251888;28;19924;-90
2023/09/23 00:15:52;;;;;;;;;;;;;;;;;;6262890;28;20027;-90
2023/09/23 00:18:53;;;;;;;;;;;;;;;;;;6260543;28;19942;-90
2023/09/23 00:21:54;;;;;;;;;;;;;;;;;;6266675;28;20019;-90
2023/09/23 00:24:54;;;;;;;;;;;;;;;;;;6247176;28;20680;-88
2023/09/23 00:27:54;;;;;;;;;;;;;;;;;;6251283;28;19921;-90
2023/09/23 00:30:54;;;;;;;;;;;;;;;;;;6247385;28;19920;-89
2023/09/23 00:33:54;;;;;;;;;;;;;;;;;;6245209;28;20412;-89
2023/09/23 00:36:54;;;;;;;;;;;;;;;;;;6246447;28;20003;-89
2023/09/23 00:39:54;;;;;;;;;;;;;;;;;;6260498;28;20395;-90
2023/09/23 00:42:55;;;;;;;;;;;;;;;;;;6243930;28;19943;-91
2023/09/23 00:45:55;;;;;;;;;;;;;;;;;;6244765;28;20304;-91
2023/09/23 00:48:55;;;;;;;;;;;;;;;;;;6241140;28;19921;-90
2023/09/23 00:51:55;;;;;;;;;;;;;;;;;;6277096;28;19920;-91
2023/09/23 00:54:55;;;;;;;;;;;;;;;;;;6249583;28;19935;-91
2023/09/23 00:58:00;;;;;;;;;;;;;;;;;;6266488;28;19920;-92
2023/09/23 01:01:01;;;;;;;;;;;;;;;;;;6268457;28;19920;-90
2023/09/23 01:04:01;;;;;;;;;;;;;;;;;;6247458;28;19925;-90
2023/09/23 01:07:02;;;;;;;;;;;;;;;;;;6269696;28;19943;-91
2023/09/23 01:10:03;;;;;;;;;;;;;;;;;;6247509;28;20475;-92
2023/09/23 01:13:14;;;;;;;;;;;;;;;;;;6239498;28;19971;-90
2023/09/23 01:16:15;;;;;;;;;;;;;;;;;;6245614;28;19924;-91
2023/09/23 01:19:16;;;;;;;;;;;;;;;;;;6244974;28;20812;-90
2023/09/23 01:22:16;;;;;;;;;;;;;;;;;;6248406;28;21264;-93
2023/09/23 01:25:17;;;;;;;;;;;;;;;;;;6245104;28;19921;-90
2023/09/23 01:28:18;;;;;;;;;;;;;;;;;;6248090;28;19921;-90
2023/09/23 01:31:21;;;;;;;;;;;;;;;;;;6245981;28;19931;-90
2023/09/23 01:34:21;;;;;;;;;;;;;;;;;;6245495;28;19947;-89
2023/09/23 01:37:23;;;;;;;;;;;;;;;;;;6241724;28;20491;-88
2023/09/23 01:40:24;;;;;;;;;;;;;;;;;;6245740;28;20439;-91
2023/09/23 01:43:25;;;;;;;;;;;;;;;;;;6244468;28;19920;-90
2023/09/23 01:46:26;;;;;;;;;;;;;;;;;;6258188;28;19924;-89
2023/09/23 01:49:26;;;;;;;;;;;;;;;;;;6243332;28;19983;-91
2023/09/23 01:52:29;;;;;;;;;;;;;;;;;;6241564;28;20867;-88
2023/09/23 01:55:29;;;;;;;;;;;;;;;;;;6234175;28;20316;-88
2023/09/23 01:58:29;;;;;;;;;;;;;;;;;;6237826;28;19921;-86
2023/09/23 02:01:30;;;;;;;;;;;;;;;;;;6239529;28;19921;-87
2023/09/23 02:04:30;;;;;;;;;;;;;;;;;;6241897;28;19958;-87
2023/09/23 02:07:30;;;;;;;;;;;;;;;;;;6243428;28;19929;-85
2023/09/23 02:10:30;;;;;;;;;;;;;;;;;;6266735;28;19959;-87
2023/09/23 02:13:31;;;;;;;;;;;;;;;;;;6250426;28;19947;-88
2023/09/23 02:16:31;;;;;;;;;;;;;;;;;;6263862;28;19998;-89
2023/09/23 02:19:31;;;;;;;;;;;;;;;;;;6292396;28;19974;-89
2023/09/23 02:22:31;;;;;;;;;;;;;;;;;;6295613;28;19943;-88
2023/09/23 02:25:31;;;;;;;;;;;;;;;;;;6268471;28;20062;-87
2023/09/23 02:28:32;;;;;;;;;;;;;;;;;;6264720;28;19974;-88
2023/09/23 02:31:35;;;;;;;;;;;;;;;;;;6246428;28;19935;-87
2023/09/23 02:34:37;;;;;;;;;;;;;;;;;;6262967;28;19960;-89
2023/09/23 02:37:37;;;;;;;;;;;;;;;;;;6245175;28;19921;-87
2023/09/23 02:40:37;;;;;;;;;;;;;;;;;;6253670;28;19927;-87
2023/09/23 02:43:38;;;;;;;;;;;;;;;;;;6267169;28;19927;-89
2023/09/23 02:46:39;;;;;;;;;;;;;;;;;;6248723;28;19955;-86
2023/09/23 02:49:39;;;;;;;;;;;;;;;;;;6262864;28;20988;-87
2023/09/23 02:52:39;;;;;;;;;;;;;;;;;;6242707;28;19924;-87
2023/09/23 02:55:42;;;;;;;;;;;;;;;;;;6243792;28;19924;-88
2023/09/23 02:58:43;;;;;;;;;;;;;;;;;;6246455;28;19927;-89
2023/09/23 03:01:51;;;;;;;;;;;;;;;;;;6263616;28;19920;-88
2023/09/23 03:04:58;;;;;;;;;;;;;;;;;;6243557;28;19932;-87
2023/09/23 03:07:58;;;;;;;;;;;;;;;;;;6239981;28;19936;-87
2023/09/23 03:11:02;;;;;;;;;;;;;;;;;;6241158;28;19921;-90
2023/09/23 03:14:03;;;;;;;;;;;;;;;;;;6242877;28;19925;-90
2023/09/23 03:17:04;;;;;;;;;;;;;;;;;;6226787;28;20442;-89
2023/09/23 03:20:10;;;;;;;;;;;;;;;;;;6226550;28;20325;-91
2023/09/23 03:23:12;;;;;;;;;;;;;;;;;;6246269;28;19924;-91
2023/09/23 03:26:31;;;;;;;;;;;;;;;;;;6228766;28;19927;-91
2023/09/23 03:29:52;;;;;;;;;;;;;;;;;;6248137;28;20332;-89
2023/09/23 03:32:53;;;;;;;;;;;;;;;;;;6246412;28;20302;-91
2023/09/23 03:35:56;;;;;;;;;;;;;;;;;;6243859;28;19925;-91
2023/09/23 03:38:57;;;;;;;;;;;;;;;;;;6241771;28;19920;-90
2023/09/23 03:41:57;;;;;;;;;;;;;;;;;;6244522;28;20087;-90
2023/09/23 03:44:57;;;;;;;;;;;;;;;;;;6244130;28;19928;-91
2023/09/23 03:47:59;;;;;;;;;;;;;;;;;;6242275;28;20344;-90
2023/09/23 03:50:59;;;;;;;;;;;;;;;;;;6242229;28;20015;-90
2023/09/23 03:54:00;;;;;;;;;;;;;;;;;;6240659;28;20671;-92
2023/09/23 03:57:00;;;;;;;;;;;;;;;;;;6276891;23;19970;-69
2023/09/23 04:00:00;;;;;;;;;;;;;;;;;;6307581;28;19924;-68
2023/09/23 04:03:00;;;;;;;;;;;;;;;;;;6311000;28;19920;-68
2023/09/23 04:06:01;;;;;;;;;;;;;;;;;;6308221;28;20468;-68
2023/09/23 04:09:01;;;;;;;;;;;;;;;;;;6308277;28;19927;-68
2023/09/23 04:12:01;;;;;;;;;;;;;;;;;;6306474;28;20373;-68
2023/09/23 04:15:02;;;;;;;;;;;;;;;;;;6306208;28;19920;-68
2023/09/23 04:18:02;;;;;;;;;;;;;;;;;;6307542;28;20377;-68
2023/09/23 04:21:03;;;;;;;;;;;;;;;;;;6306670;28;19920;-69
2023/09/23 04:24:03;;;;;;;;;;;;;;;;;;6306617;28;19931;-69
2023/09/23 04:27:03;;;;;;;;;;;;;;;;;;6289849;28;19941;-68
2023/09/23 04:30:11;;;;;;;;;;;;;;;;;;6310201;28;20573;-68
2023/09/23 04:33:12;;;;;;;;;;;;;;;;;;6290743;28;19955;-68
2023/09/23 04:36:12;;;;;;;;;;;;;;;;;;6308846;28;20407;-69
2023/09/23 04:39:12;;;;;;;;;;;;;;;;;;6311233;28;19971;-68
2023/09/23 04:42:13;;;;;;;;;;;;;;;;;;6311401;28;19966;-69
2023/09/23 04:45:13;;;;;;;;;;;;;;;;;;6310240;28;19926;-69
2023/09/23 04:48:14;;;;;;;;;;;;;;;;;;6307927;28;19942;-68
2023/09/23 04:51:14;;;;;;;;;;;;;;;;;;6309597;28;20050;-69
2023/09/23 04:54:14;;;;;;;;;;;;;;;;;;6311677;28;19943;-69
2023/09/23 04:57:14;;;;;;;;;;;;;;;;;;6312605;27;19932;-68
2023/09/23 05:00:18;;;;;;;;;;;;;;;;;;6314310;27;19979;-68
2023/09/23 05:03:23;;;;;;;;;;;;;;;;;;6312326;27;19938;-69
2023/09/23 05:06:24;;;;;;;;;;;;;;;;;;6315432;27;19924;-68
2023/09/23 05:09:25;;;;;;;;;;;;;;;;;;6315947;27;20301;-68
2023/09/23 05:12:25;;;;;;;;;;;;;;;;;;6301670;27;20259;-68
2023/09/23 05:15:29;;;;;;;;;;;;;;;;;;6318356;27;19920;-68
2023/09/23 05:18:29;;;;;;;;;;;;;;;;;;6316674;27;20032;-68
2023/09/23 05:21:29;;;;;;;;;;;;;;;;;;6315800;27;19932;-68
2023/09/23 05:24:30;;;;;;;;;;;;;;;;;;6315495;27;19927;-68
2023/09/23 05:27:30;;;;;;;;;;;;;;;;;;6317500;27;19948;-69
2023/09/23 05:30:30;;;;;;;;;;;;;;;;;;6314835;27;19979;-68
2023/09/23 05:33:31;;;;;;;;;;;;;;;;;;6314739;27;19938;-69
2023/09/23 05:36:31;;;;;;;;;;;;;;;;;;6314513;27;19926;-69
2023/09/23 05:39:31;;;;;;;;;;;;;;;;;;6320958;27;19919;-67
2023/09/23 05:42:34;;;;;;;;;;;;;;;;;;6303567;27;19920;-68
2023/09/23 05:45:35;;;;;;;;;;;;;;;;;;6314658;27;20445;-68
2023/09/23 05:48:35;;;;;;;;;;;;;;;;;;6315241;27;19920;-69
2023/09/23 05:51:35;;;;;;;;;;;;;;;;;;6294743;27;20378;-68
2023/09/23 05:54:36;;;;;;;;;;;;;;;;;;6313099;27;20257;-69
2023/09/23 05:57:38;;;;;;;;;;;;;;;;;;6309414;27;20365;-69
2023/09/23 06:00:38;;;;;;;;;;;;;;;;;;6303791;28;20372;-69
2023/09/23 06:03:41;;;;;;;;;;;;;;;;;;6301810;28;20371;-69
2023/09/23 06:06:41;;;;;;;;;;;;;;;;;;6285400;28;19919;-69
2023/09/23 06:09:41;;;;;;;;;;;;;;;;;;6305239;28;20168;-68
2023/09/23 06:12:41;;;;;;;;;;;;;;;;;;6305691;28;19944;-69
2023/09/23 06:15:41;;;;;;;;;;;;;;;;;;6305299;28;19924;-69
2023/09/23 06:18:41;;;;;;;;;;;;;;;;;;6303966;28;19955;-69
2023/09/23 06:21:42;;;;;;;;;;;;;;;;;;6288277;28;20402;-69
2023/09/23 06:24:42;;;;;;;;;;;;;;;;;;6305589;28;20418;-69
2023/09/23 06:27:45;;;;;;;;;;;;;;;;;;6290164;28;19943;-69
2023/09/23 06:30:46;;;;;;;;;;;;;;;;;;6285898;28;19934;-69
2023/09/23 06:33:46;;;;;;;;;;;;;;;;;;6280303;28;19924;-69
2023/09/23 06:36:46;;;;;;;;;;;;;;;;;;6284931;28;19920;-69
2023/09/23 06:39:47;;;;;;;;;;;;;;;;;;6301934;28;19920;-69
2023/09/23 06:42:47;;;;;;;;;;;;;;;;;;6285254;28;20600;-69
2023/09/23 06:45:47;;;;;;;;;;;;;;;;;;6285280;28;20018;-70
2023/09/23 06:48:47;;;;;;;;;;;;;;;;;;6299103;28;19920;-70
2023/09/23 06:51:47;;;;;;;;;;;;;;;;;;6297439;28;20404;-70
2023/09/23 06:54:48;;;;;;;;;;;;;;;;;;6301612;28;20400;-70
2023/09/23 06:57:48;;;;;;;;;;;;;;;;;;6301962;28;19941;-69
2023/09/23 07:00:48;;;;;;;;;;;;;;;;;;6304054;28;19943;-69
2023/09/23 07:03:50;;;;;;;;;;;;;;;;;;6285759;28;20264;-69
2023/09/23 07:06:50;;;;;;;;;;;;;;;;;;6301107;28;19926;-69
2023/09/23 07:09:50;;;;;;;;;;;;;;;;;;6300295;28;19996;-69
2023/09/23 07:12:50;;;;;;;;;;;;;;;;;;6298376;28;19923;-70
2023/09/23 07:15:50;;;;;;;;;;;;;;;;;;6302003;28;19916;-69
2023/09/23 07:18:50;;;;;;;;;;;;;;;;;;6301261;28;19985;-70
2023/09/23 07:21:50;;;;;;;;;;;;;;;;;;6286021;28;19977;-69
2023/09/23 07:24:51;;;;;;;;;;;;;;;;;;6301770;28;20013;-69
2023/09/23 07:27:51;;;;;;;;;;;;;;;;;;6299843;28;19920;-69
2023/09/23 07:30:51;;;;;;;;;;;;;;;;;;6299255;28;20396;-70
2023/09/23 07:33:53;;;;;;;;;;;;;;;;;;6022704;28;9999674;-70
2023/09/23 07:36:53;;;;;;;;;;;;;;;;;;6283949;28;19920;-70
2023/09/23 07:39:53;;;;;;;;;;;;;;;;;;6284902;28;19920;-70
2023/09/23 07:42:53;;;;;;;;;;;;;;;;;;6296707;28;19924;-70
2023/09/23 07:45:54;;;;;;;;;;;;;;;;;;6283490;28;20001;-70
2023/09/23 07:48:54;;;;;;;;;;;;;;;;;;6296678;28;20332;-69
2023/09/23 07:51:56;;;;;;;;;;;;;;;;;;6297664;28;19965;-69
2023/09/23 07:54:56;;;;;;;;;;;;;;;;;;6299271;28;20585;-70
2023/09/23 07:57:56;;;;;;;;;;;;;;;;;;6299149;28;19928;-70
2023/09/23 08:00:56;;;;;;;;;;;;;;;;;;6302124;28;20393;-69
2023/09/23 08:03:57;;;;;;;;;;;;;;;;;;6302659;28;20375;-69
2023/09/23 08:06:57;;;;;;;;;;;;;;;;;;6306815;28;19926;-68
2023/09/23 08:09:57;;;;;;;;;;;;;;;;;;6306605;28;19920;-69
2023/09/23 08:12:57;;;;;;;;;;;;;;;;;;6304988;28;19924;-69
2023/09/23 08:15:58;;;;;;;;;;;;;;;;;;6305476;28;19946;-69
2023/09/23 08:18:58;;;;;;;;;;;;;;;;;;6285124;28;19935;-69
2023/09/23 08:21:58;;;;;;;;;;;;;;;;;;6302410;28;19996;-70
2023/09/23 08:24:59;;;;;;;;;;;;;;;;;;5936968;28;10000282;-69
2023/09/23 08:28:00;;;;;;;;;;;;;;;;;;6305390;28;20336;-69
2023/09/23 08:31:00;;;;;;;;;;;;;;;;;;6304562;28;20393;-69
2023/09/23 08:34:00;;;;;;;;;;;;;;;;;;6297713;28;20041;-69
2023/09/23 08:37:00;;;;;;;;;;;;;;;;;;6307299;28;19945;-70
2023/09/23 08:40:02;;;;;;;;;;;;;;;;;;6286281;28;19920;-69
2023/09/23 08:43:03;;;;;;;;;;;;;;;;;;6303896;28;20434;-69
2023/09/23 08:46:05;;;;;;;;;;;;;;;;;;6286388;28;20011;-70
2023/09/23 08:49:08;;;;;;;;;;;;;;;;;;6304516;28;19931;-71
2023/09/23 08:52:09;;;;;;;;;;;;;;;;;;6304562;28;19931;-70
2023/09/23 08:55:09;;;;;;;;;;;;;;;;;;6301141;28;19916;-71
2023/09/23 08:58:09;;;;;;;;;;;;;;;;;;6302030;28;20439;-71
2023/09/23 09:01:10;;;;;;;;;;;;;;;;;;6300074;28;19928;-69
2023/09/23 09:04:10;;;;;;;;;;;;;;;;;;6301988;28;19920;-69
2023/09/23 09:07:10;;;;;;;;;;;;;;;;;;6303474;28;19941;-69
2023/09/23 09:10:10;;;;;;;;;;;;;;;;;;6282490;28;19972;-69
2023/09/23 09:13:11;;;;;;;;;;;;;;;;;;6298863;28;19985;-69
2023/09/23 09:16:11;;;;;;;;;;;;;;;;;;6301485;28;19926;-68
2023/09/23 09:19:11;;;;;;;;;;;;;;;;;;6301785;28;20626;-69
2023/09/23 09:22:11;;;;;;;;;;;;;;;;;;6302325;28;19927;-69
2023/09/23 09:25:12;;;;;;;;;;;;;;;;;;6283832;28;19920;-69
2023/09/23 09:28:12;;;;;;;;;;;;;;;;;;6299360;28;19927;-68
2023/09/23 09:31:12;;;;;;;;;;;;;;;;;;6303457;28;19969;-69
2023/09/23 09:34:12;;;;;;;;;;;;;;;;;;6303334;28;19920;-69
2023/09/23 09:37:15;;;;;;;;;;;;;;;;;;6303557;28;19927;-70
2023/09/23 09:40:17;;;;;;;;;;;;;;;;;;6301163;28;20369;-70
2023/09/23 09:43:17;;;;;;;;;;;;;;;;;;6305434;28;20563;-70
2023/09/23 09:46:18;;;;;;;;;;;;;;;;;;6303007;28;19965;-72
2023/09/23 09:49:19;;;;;;;;;;;;;;;;;;6298652;28;19920;-71
2023/09/23 09:52:19;;;;;;;;;;;;;;;;;;6286335;28;20433;-71
2023/09/23 09:55:19;;;;;;;;;;;;;;;;;;6289147;28;19921;-71
2023/09/23 09:58:23;;;;;;;;;;;;;;;;;;6299252;28;19935;-73
2023/09/23 10:01:23;;;;;;;;;;;;;;;;;;6302241;28;20443;-73
2023/09/23 10:04:26;;;;;;;;;;;;;;;;;;6300490;28;20010;-73
2023/09/23 10:07:26;;;;;;;;;;;;;;;;;;6299945;28;19920;-73
2023/09/23 10:10:26;;;;;;;;;;;;;;;;;;6301683;28;20034;-73
2023/09/23 10:13:26;;;;;;;;;;;;;;;;;;6299888;28;19985;-73
2023/09/23 10:16:29;;;;;;;;;;;;;;;;;;6287479;28;19930;-72
2023/09/23 10:19:29;;;;;;;;;;;;;;;;;;6280706;28;19920;-73
2023/09/23 10:22:30;;;;;;;;;;;;;;;;;;6299524;28;19920;-73
2023/09/23 10:25:30;;;;;;;;;;;;;;;;;;6300235;28;19926;-71
2023/09/23 10:28:30;;;;;;;;;;;;;;;;;;6300876;28;20254;-73
2023/09/23 10:31:31;;;;;;;;;;;;;;;;;;6284014;28;19978;-73
2023/09/23 10:34:31;;;;;;;;;;;;;;;;;;6299509;28;21560;-73
2023/09/23 10:37:33;;;;;;;;;;;;;;;;;;6300694;28;20437;-73
2023/09/23 10:40:33;;;;;;;;;;;;;;;;;;6299890;28;19966;-73
2023/09/23 10:43:34;;;;;;;;;;;;;;;;;;6299387;28;20010;-73
2023/09/23 10:46:34;;;;;;;;;;;;;;;;;;6283451;28;19986;-72
2023/09/23 10:49:35;;;;;;;;;;;;;;;;;;6288345;28;20962;-74
2023/09/23 10:52:35;;;;;;;;;;;;;;;;;;6282635;28;20382;-73
2023/09/23 10:55:35;;;;;;;;;;;;;;;;;;6283938;28;20018;-74
2023/09/23 10:58:36;;;;;;;;;;;;;;;;;;6294350;28;19935;-74
2023/09/23 11:01:36;;;;;;;;;;;;;;;;;;6302804;28;19991;-71
2023/09/23 11:04:36;;;;;;;;;;;;;;;;;;6305322;28;19920;-73
2023/09/23 11:07:37;;;;;;;;;;;;;;;;;;6305907;28;20361;-74
2023/09/23 11:10:37;;;;;;;;;;;;;;;;;;6307372;28;19920;-74
2023/09/23 11:13:37;;;;;;;;;;;;;;;;;;6305812;28;19924;-72
2023/09/23 11:16:37;;;;;;;;;;;;;;;;;;6305790;28;19939;-72
2023/09/23 11:19:37;;;;;;;;;;;;;;;;;;6305591;28;19942;-73
2023/09/23 11:22:38;;;;;;;;;;;;;;;;;;6306834;28;19923;-73
2023/09/23 11:25:39;;;;;;;;;;;;;;;;;;6305992;28;19931;-73
2023/09/23 11:28:39;;;;;;;;;;;;;;;;;;6305007;28;20003;-73
2023/09/23 11:31:40;;;;;;;;;;;;;;;;;;6306787;28;19954;-75
2023/09/23 11:34:40;;;;;;;;;;;;;;;;;;6303605;28;19920;-72
2023/09/23 11:37:41;;;;;;;;;;;;;;;;;;6305480;28;19920;-73
2023/09/23 11:40:41;;;;;;;;;;;;;;;;;;6305723;28;19951;-73
2023/09/23 11:43:41;;;;;;;;;;;;;;;;;;6302355;28;20430;-73
2023/09/23 11:46:42;;;;;;;;;;;;;;;;;;6305087;28;19919;-74
2023/09/23 11:49:42;;;;;;;;;;;;;;;;;;6305044;28;19974;-73
2023/09/23 11:52:42;;;;;;;;;;;;;;;;;;6302395;28;19974;-72
2023/09/23 11:55:42;;;;;;;;;;;;;;;;;;6303492;28;20659;-73
2023/09/23 11:58:42;;;;;;;;;;;;;;;;;;6297600;28;19928;-72
2023/09/23 12:01:42;;;;;;;;;;;;;;;;;;6297900;28;19964;-72
2023/09/23 12:04:46;;;;;;;;;;;;;;;;;;6296055;28;19920;-74
2023/09/23 12:07:46;;;;;;;;;;;;;;;;;;6296831;28;19916;-74
2023/09/23 12:10:47;;;;;;;;;;;;;;;;;;6279704;28;19950;-73
2023/09/23 12:13:47;;;;;;;;;;;;;;;;;;6296705;28;19931;-73
2023/09/23 12:16:47;;;;;;;;;;;;;;;;;;6280100;28;19923;-74
2023/09/23 12:19:47;;;;;;;;;;;;;;;;;;6280686;28;19920;-74
2023/09/23 12:22:47;;;;;;;;;;;;;;;;;;6298366;28;19919;-73
2023/09/23 12:25:48;;;;;;;;;;;;;;;;;;6296918;28;19919;-74
2023/09/23 12:28:48;;;;;;;;;;;;;;;;;;6294887;28;19922;-75
2023/09/23 12:31:48;;;;;;;;;;;;;;;;;;6280201;28;19924;-74
2023/09/23 12:34:49;;;;;;;;;;;;;;;;;;6282304;28;20389;-73
2023/09/23 12:37:50;;;;;;;;;;;;;;;;;;6297027;28;20253;-75
2023/09/23 12:40:50;;;;;;;;;;;;;;;;;;6273366;28;20457;-75
2023/09/23 12:43:50;;;;;;;;;;;;;;;;;;6296740;28;19954;-75
2023/09/23 12:46:50;;;;;;;;;;;;;;;;;;6284444;28;20431;-75
2023/09/23 12:49:50;;;;;;;;;;;;;;;;;;6301002;28;19923;-75
2023/09/23 12:52:53;;;;;;;;;;;;;;;;;;6303837;28;20018;-75
2023/09/23 12:55:53;;;;;;;;;;;;;;;;;;6297967;28;20681;-74
2023/09/23 12:58:54;;;;;;;;;;;;;;;;;;6299771;28;20026;-75
2023/09/23 13:01:54;;;;;;;;;;;;;;;;;;6303129;28;19924;-75
2023/09/23 13:04:54;;;;;;;;;;;;;;;;;;6291888;28;19943;-74
2023/09/23 13:07:54;;;;;;;;;;;;;;;;;;6284239;28;20002;-73
2023/09/23 13:10:54;;;;;;;;;;;;;;;;;;6299592;28;20035;-74
2023/09/23 13:13:55;;;;;;;;;;;;;;;;;;6284366;28;19923;-72
2023/09/23 13:16:58;;;;;;;;;;;;;;;;;;6300183;28;21427;-72
2023/09/23 13:19:58;;;;;;;;;;;;;;;;;;6299126;28;20046;-73
2023/09/23 13:22:58;;;;;;;;;;;;;;;;;;6300596;28;19920;-73
2023/09/23 13:25:59;;;;;;;;;;;;;;;;;;6280422;28;19975;-74
2023/09/23 13:28:59;;;;;;;;;;;;;;;;;;6283955;28;20350;-75
2023/09/23 13:31:59;;;;;;;;;;;;;;;;;;6300226;28;19931;-73
2023/09/23 13:34:59;;;;;;;;;;;;;;;;;;6285708;28;19920;-74
2023/09/23 13:37:59;;;;;;;;;;;;;;;;;;6285637;28;19924;-73
2023/09/23 13:41:01;;;;;;;;;;;;;;;;;;6304393;28;19920;-74
2023/09/23 13:44:02;;;;;;;;;;;;;;;;;;6301922;28;21527;-74
2023/09/23 13:47:03;;;;;;;;;;;;;;;;;;6304230;28;19948;-75
2023/09/23 13:50:03;;;;;;;;;;;;;;;;;;6292124;28;19920;-74
2023/09/23 13:53:04;;;;;;;;;;;;;;;;;;6304900;28;19924;-74
2023/09/23 13:56:04;;;;;;;;;;;;;;;;;;6284979;28;19953;-72
2023/09/23 13:59:04;;;;;;;;;;;;;;;;;;6302905;28;20448;-71
2023/09/23 14:02:04;;;;;;;;;;;;;;;;;;6303594;28;19924;-72
2023/09/23 14:05:05;;;;;;;;;;;;;;;;;;6299242;28;20631;-73
2023/09/23 14:08:05;;;;;;;;;;;;;;;;;;6283968;28;19927;-74
2023/09/23 14:11:05;;;;;;;;;;;;;;;;;;6301699;28;20484;-73
2023/09/23 14:14:05;;;;;;;;;;;;;;;;;;6300241;28;19924;-73
2023/09/23 14:17:05;;;;;;;;;;;;;;;;;;6301104;28;19993;-72
2023/09/23 14:20:09;;;;;;;;;;;;;;;;;;6296411;28;19919;-73
2023/09/23 14:23:09;;;;;;;;;;;;;;;;;;6294786;28;19938;-74
2023/09/23 14:26:09;;;;;;;;;;;;;;;;;;6290439;28;20066;-74
2023/09/23 14:29:09;;;;;;;;;;;;;;;;;;6297450;28;19920;-73
2023/09/23 14:32:10;;;;;;;;;;;;;;;;;;6299119;28;19924;-73
2023/09/23 14:35:10;;;;;;;;;;;;;;;;;;6299673;28;20309;-72
2023/09/23 14:38:10;;;;;;;;;;;;;;;;;;6303196;28;19969;-72
2023/09/23 14:41:10;;;;;;;;;;;;;;;;;;6303434;28;19916;-73
2023/09/23 14:44:10;;;;;;;;;;;;;;;;;;6302179;28;19998;-74
2023/09/23 14:47:10;;;;;;;;;;;;;;;;;;6299913;28;19926;-73
2023/09/23 14:50:11;;;;;;;;;;;;;;;;;;6298802;28;19920;-73
2023/09/23 14:53:11;;;;;;;;;;;;;;;;;;6299218;28;20058;-72
2023/09/23 14:56:11;;;;;;;;;;;;;;;;;;6295100;28;20415;-72
2023/09/23 14:59:11;;;;;;;;;;;;;;;;;;6298222;27;19935;-71
2023/09/23 15:02:11;;;;;;;;;;;;;;;;;;6299335;28;19924;-71
2023/09/23 15:05:12;;;;;;;;;;;;;;;;;;6280361;28;20744;-73
2023/09/23 15:08:12;;;;;;;;;;;;;;;;;;6297589;28;20284;-72
2023/09/23 15:11:12;;;;;;;;;;;;;;;;;;6300440;28;20382;-71
2023/09/23 15:14:12;;;;;;;;;;;;;;;;;;6297302;28;20425;-71
2023/09/23 15:17:13;;;;;;;;;;;;;;;;;;6296728;28;19924;-71
2023/09/23 15:20:13;;;;;;;;;;;;;;;;;;6281183;28;20670;-72
2023/09/23 15:23:13;;;;;;;;;;;;;;;;;;6296889;28;19927;-72
2023/09/23 15:26:13;;;;;;;;;;;;;;;;;;6296739;28;20354;-72
2023/09/23 15:29:14;;;;;;;;;;;;;;;;;;6281405;28;20017;-71
2023/09/23 15:32:14;;;;;;;;;;;;;;;;;;6297960;28;19953;-72
2023/09/23 15:35:16;;;;;;;;;;;;;;;;;;6297294;28;20019;-71
2023/09/23 15:38:16;;;;;;;;;;;;;;;;;;6299441;28;19960;-71
2023/09/23 15:41:16;;;;;;;;;;;;;;;;;;6296766;28;19946;-71
2023/09/23 15:44:16;;;;;;;;;;;;;;;;;;6299158;28;19920;-71
2023/09/23 15:47:18;;;;;;;;;;;;;;;;;;6300146;28;19927;-71
2023/09/23 15:50:18;;;;;;;;;;;;;;;;;;6300606;28;19920;-71
2023/09/23 15:53:18;;;;;;;;;;;;;;;;;;6300947;28;19996;-70
2023/09/23 15:56:18;;;;;;;;;;;;;;;;;;6300742;28;20044;-72
2023/09/23 15:59:19;;;;;;;;;;;;;;;;;;6300508;28;19974;-71
2023/09/23 16:02:19;;;;;;;;;;;;;;;;;;6302569;28;19924;-71
2023/09/23 16:05:20;;;;;;;;;;;;;;;;;;6300409;28;20027;-72
2023/09/23 16:08:20;;;;;;;;;;;;;;;;;;6301560;28;19920;-71
2023/09/23 16:11:21;;;;;;;;;;;;;;;;;;6300529;28;20033;-72
2023/09/23 16:14:25;;;;;;;;;;;;;;;;;;6298379;28;19935;-72
2023/09/23 16:17:25;;;;;;;;;;;;;;;;;;6303034;28;19927;-71
2023/09/23 16:20:25;;;;;;;;;;;;;;;;;;6294620;28;19919;-72
2023/09/23 16:23:25;;;;;;;;;;;;;;;;;;6303851;28;19955;-74
2023/09/23 16:26:25;;;;;;;;;;;;;;;;;;6304267;28;19920;-69
2023/09/23 16:29:25;;;;;;;;;;;;;;;;;;6299579;28;20465;-68
2023/09/23 16:32:25;;;;;;;;;;;;;;;;;;6283238;28;19924;-69
2023/09/23 16:35:25;;;;;;;;;;;;;;;;;;6283568;28;21574;-69
2023/09/23 16:38:26;;;;;;;;;;;;;;;;;;6306082;28;20425;-68
2023/09/23 16:41:26;;;;;;;;;;;;;;;;;;6304521;28;20305;-70
2023/09/23 16:44:26;;;;;;;;;;;;;;;;;;6303528;28;20050;-70
2023/09/23 16:47:26;;;;;;;;;;;;;;;;;;6307139;28;19927;-69
2023/09/23 16:50:26;;;;;;;;;;;;;;;;;;6299726;28;19919;-67
2023/09/23 16:53:27;;;;;;;;;;;;;;;;;;6298463;28;20027;-70
2023/09/23 16:56:27;;;;;;;;;;;;;;;;;;6305087;28;20015;-69
2023/09/23 16:59:27;;;;;;;;;;;;;;;;;;6332702;27;19930;-69
2023/09/23 17:02:28;;;;;;;;;;;;;;;;;;6335489;27;19939;-69
2023/09/23 17:05:28;;;;;;;;;;;;;;;;;;6334484;27;21083;-69
2023/09/23 17:08:28;;;;;;;;;;;;;;;;;;6319317;27;20654;-69
2023/09/23 17:11:28;;;;;;;;;;;;;;;;;;6332879;27;20332;-69
2023/09/23 17:14:28;;;;;;;;;;;;;;;;;;6329749;27;20000;-70
2023/09/23 17:17:28;;;;;;;;;;;;;;;;;;6328658;27;20616;-70
2023/09/23 17:20:29;;;;;;;;;;;;;;;;;;6327573;27;19962;-69
2023/09/23 17:23:30;;;;;;;;;;;;;;;;;;6330917;27;19919;-70
2023/09/23 17:26:30;;;;;;;;;;;;;;;;;;6327353;27;19959;-68
2023/09/23 17:29:30;;;;;;;;;;;;;;;;;;6315083;27;19937;-70
2023/09/23 17:32:31;;;;;;;;;;;;;;;;;;6328923;27;19975;-68
2023/09/23 17:35:31;;;;;;;;;;;;;;;;;;6333125;27;21618;-68
2023/09/23 17:38:32;;;;;;;;;;;;;;;;;;6315538;27;21060;-68
2023/09/23 17:41:32;;;;;;;;;;;;;;;;;;6332159;27;19926;-68
2023/09/23 17:44:32;;;;;;;;;;;;;;;;;;6329098;27;20598;-69
2023/09/23 17:47:33;;;;;;;;;;;;;;;;;;6330679;27;19919;-74
2023/09/23 17:50:36;;;;;;;;;;;;;;;;;;6329266;27;19920;-77
2023/09/23 17:53:37;;;;;;;;;;;;;;;;;;6316694;27;19924;-74
2023/09/23 17:56:38;;;;;;;;;;;;;;;;;;6328393;27;20014;-77
2023/09/23 17:59:38;;;;;;;;;;;;;;;;;;6299247;27;19932;-75
2023/09/23 18:02:38;;;;;;;;;;;;;;;;;;6286314;28;20394;-76
2023/09/23 18:05:39;;;;;;;;;;;;;;;;;;6300657;28;19924;-76
2023/09/23 18:08:40;;;;;;;;;;;;;;;;;;6301145;28;20350;-76
2023/09/23 18:11:40;;;;;;;;;;;;;;;;;;6283434;28;19920;-77
2023/09/23 18:14:40;;;;;;;;;;;;;;;;;;6298999;28;20390;-77
2023/09/23 18:17:40;;;;;;;;;;;;;;;;;;6300956;28;20046;-75
2023/09/23 18:20:42;;;;;;;;;;;;;;;;;;6296922;28;21039;-75
2023/09/23 18:23:43;;;;;;;;;;;;;;;;;;6296725;28;20310;-75
2023/09/23 18:26:43;;;;;;;;;;;;;;;;;;6297923;28;19983;-75
2023/09/23 18:29:44;;;;;;;;;;;;;;;;;;6298925;28;19920;-75
2023/09/23 18:32:44;;;;;;;;;;;;;;;;;;6301108;28;19935;-76
2023/09/23 18:35:46;;;;;;;;;;;;;;;;;;6300403;28;19928;-75
2023/09/23 18:38:47;;;;;;;;;;;;;;;;;;6284025;28;19947;-75
2023/09/23 18:41:47;;;;;;;;;;;;;;;;;;6297976;28;20775;-75
2023/09/23 18:44:48;;;;;;;;;;;;;;;;;;6301952;28;19955;-76
2023/09/23 18:47:48;;;;;;;;;;;;;;;;;;6299935;28;20301;-76
2023/09/23 18:50:49;;;;;;;;;;;;;;;;;;6298777;28;21308;-75
2023/09/23 18:53:51;;;;;;;;;;;;;;;;;;6285028;28;19923;-74
2023/09/23 18:56:51;;;;;;;;;;;;;;;;;;6298114;28;20465;-75
2023/09/23 18:59:51;;;;;;;;;;;;;;;;;;6301503;27;19939;-75
2023/09/23 19:02:51;;;;;;;;;;;;;;;;;;6283571;28;20498;-74
2023/09/23 19:05:51;;;;;;;;;;;;;;;;;;6280935;28;20369;-75
2023/09/23 19:08:51;;;;;;;;;;;;;;;;;;6299946;28;19926;-74
2023/09/23 19:11:51;;;;;;;;;;;;;;;;;;6299508;28;19919;-75
2023/09/23 19:14:52;;;;;;;;;;;;;;;;;;6279499;28;19924;-75
2023/09/23 19:17:53;;;;;;;;;;;;;;;;;;6298395;28;19930;-75
2023/09/23 19:20:55;;;;;;;;;;;;;;;;;;6298767;28;19927;-75
2023/09/23 19:23:57;;;;;;;;;;;;;;;;;;6298165;28;20007;-74
2023/09/23 19:26:57;;;;;;;;;;;;;;;;;;6297881;28;19947;-75
2023/09/23 19:29:57;;;;;;;;;;;;;;;;;;6280132;28;19920;-75
2023/09/23 19:32:57;;;;;;;;;;;;;;;;;;6299000;28;20009;-75
2023/09/23 19:35:57;;;;;;;;;;;;;;;;;;6299171;28;19920;-74
2023/09/23 19:38:59;;;;;;;;;;;;;;;;;;6299576;28;20022;-74
2023/09/23 19:41:59;;;;;;;;;;;;;;;;;;6298443;28;19996;-74
2023/09/23 19:45:02;;;;;;;;;;;;;;;;;;6283170;28;19920;-74
2023/09/23 19:48:02;;;;;;;;;;;;;;;;;;6298915;28;21105;-75
2023/09/23 19:51:08;;;;;;;;;;;;;;;;;;6297104;28;19926;-74
2023/09/23 19:54:09;;;;;;;;;;;;;;;;;;6280862;28;19924;-77
2023/09/23 19:57:11;;;;;;;;;;;;;;;;;;6287652;27;20034;-78
2023/09/23 20:00:11;;;;;;;;;;;;;;;;;;6283842;28;19924;-78
2023/09/23 20:03:13;;;;;;;;;;;;;;;;;;6288390;28;20094;-78
2023/09/23 20:06:14;;;;;;;;;;;;;;;;;;6287209;28;20573;-78
2023/09/23 20:09:14;;;;;;;;;;;;;;;;;;6297730;28;19920;-79
2023/09/23 20:12:14;;;;;;;;;;;;;;;;;;6306639;28;19972;-78
2023/09/23 20:15:14;;;;;;;;;;;;;;;;;;6288882;28;20940;-78
2023/09/23 20:18:16;;;;;;;;;;;;;;;;;;6303389;28;20378;-78
2023/09/23 20:21:17;;;;;;;;;;;;;;;;;;6301947;28;19966;-79
2023/09/23 20:24:17;;;;;;;;;;;;;;;;;;6296996;28;19923;-79
2023/09/23 20:27:18;;;;;;;;;;;;;;;;;;6305351;28;19920;-78
2023/09/23 20:30:18;;;;;;;;;;;;;;;;;;6308038;28;19927;-78
2023/09/23 20:33:18;;;;;;;;;;;;;;;;;;6283931;28;20667;-79